.
WxDataArchive / Data Records for 2011-08-21
2011-08-20 August 2011 2011-08-22

Data Records for Sunday, 21 August 2011

Time	Temp	Chill	HIndex	Humid	Dewpt	 Wind 	HiWind	WindDir	Rain 	Barom 
-----	----	-----	------	-----	-----	------	------	-------	-----	----- 
00:00	69.3	69.3	69.3	83	63.9	0	0	---	0.00	29.900 
00:05	69.3	69.3	69.3	83	63.9	0	0	---	0.00	29.900 
00:10	69.3	69.3	69.3	83	63.9	0	0	---	0.00	29.900 
00:15	69.1	69.1	69.1	83	63.7	0	0	---	0.00	29.903 
00:20	69.1	69.1	69.1	84	64.1	0	0	---	0.00	29.903 
00:25	69.1	69.1	69.1	84	64.1	0	0	---	0.00	29.903 
00:30	69.1	69.1	69.1	84	64.1	0	0	---	0.00	29.912 
00:35	69.1	69.1	69.1	84	64.1	0	0	---	0.00	29.912 
00:40	68.9	68.9	68.9	85	64.2	0	0	---	0.00	29.912 
00:45	68.9	68.9	68.9	85	64.2	0	0	---	0.00	29.914 
00:50	68.9	68.9	68.9	85	64.2	0	0	---	0.00	29.914 
00:55	68.9	68.9	68.9	85	64.2	0	0	---	0.00	29.914 
01:00	69.1	69.1	69.1	85	64.4	0	0	---	0.00	29.915 
01:05	69.1	69.1	69.1	85	64.4	0	0	---	0.00	29.915 
01:10	69.1	69.1	69.1	85	64.4	0	0	---	0.00	29.915 
01:15	69.1	69.1	69.1	85	64.4	0	0	---	0.00	29.915 
01:20	69.3	69.3	69.3	86	64.9	0	0	---	0.00	29.915 
01:25	69.3	69.3	69.3	86	64.9	0	0	---	0.00	29.915 
01:30	69.3	69.3	69.3	86	64.9	0	0	---	0.00	29.915 
01:35	69.3	69.3	69.3	86	64.9	0	0	---	0.00	29.915 
01:40	69.3	69.3	69.3	86	64.9	0	0	---	0.00	29.915 
01:45	69.3	69.3	69.3	86	64.9	0	0	---	0.00	29.918 
01:50	69.3	69.3	69.3	87	65.3	0	0	---	0.00	29.918 
01:55	69.3	69.3	69.3	87	65.3	0	0	---	0.00	29.918 
02:00	69.3	69.3	69.3	87	65.3	0	0	---	0.00	29.916 
02:05	69.3	69.3	69.3	87	65.3	0	0	---	0.00	29.916 
02:10	69.3	69.3	69.3	87	65.3	0	0	---	0.00	29.916 
02:15	69.3	69.3	69.3	88	65.6	0	0	---	0.00	29.914 
02:20	69.1	69.1	69.1	88	65.4	0	0	---	0.00	29.914 
02:25	69.1	69.1	69.1	88	65.4	0	0	---	0.00	29.914 
02:30	69.1	69.1	69.1	89	65.7	0	0	---	0.00	29.885 
02:35	69.1	69.1	69.1	89	65.7	0	0	---	0.00	29.885 
02:40	69.1	69.1	69.1	90	66.0	0	1	248	0.00	29.885 
02:45	68.9	68.9	68.9	90	65.8	0	0	---	0.00	29.884 
02:50	68.8	68.8	68.8	90	65.7	0	0	---	0.00	29.884 
02:55	68.6	68.6	68.6	90	65.5	0	0	---	0.00	29.884 
03:00	68.6	68.6	68.6	91	65.9	0	0	---	0.00	29.887 
03:05	68.6	68.6	68.6	91	65.9	0	0	---	0.00	29.887 
03:10	68.4	68.4	68.4	91	65.7	0	0	---	0.00	29.887 
03:15	68.3	68.3	68.3	91	65.6	0	0	---	0.00	29.891 
03:20	68.1	68.1	68.1	92	65.7	0	0	---	0.00	29.891 
03:25	67.9	67.9	67.9	92	65.5	0	0	---	0.00	29.891 
03:30	67.8	67.8	67.8	92	65.4	0	0	---	0.00	29.886 
03:35	67.6	67.6	67.6	92	65.2	0	0	---	0.00	29.886 
03:40	67.6	67.6	67.6	92	65.2	0	0	---	0.00	29.886 
03:45	67.4	67.4	67.4	92	65.0	0	0	---	0.00	29.885 
03:50	67.3	67.3	67.3	93	65.2	0	0	---	0.00	29.885 
03:55	67.3	67.3	67.3	93	65.2	0	0	---	0.00	29.885 
04:00	67.1	67.1	67.1	93	65.0	0	0	---	0.00	29.889 
04:05	67.1	67.1	67.1	93	65.0	0	0	---	0.00	29.889 
04:10	67.1	67.1	67.1	93	65.0	0	0	---	0.00	29.889 
04:15	66.9	66.9	66.9	93	64.8	0	0	---	0.00	29.895 
04:20	67.1	67.1	67.1	93	65.0	0	0	---	0.00	29.895 
04:25	66.9	66.9	66.9	93	64.8	0	0	---	0.00	29.895 
04:30	66.9	66.9	66.9	93	64.8	0	0	---	0.00	29.899 
04:35	67.1	67.1	67.1	94	65.3	0	0	---	0.00	29.899 
04:40	67.1	67.1	67.1	94	65.3	0	0	---	0.00	29.899 
04:45	67.1	67.1	67.1	94	65.3	0	0	---	0.00	29.896 
04:50	67.3	67.3	67.3	94	65.5	0	0	---	0.00	29.896 
04:55	67.3	67.3	67.3	94	65.5	0	0	---	0.00	29.896 
05:00	67.3	67.3	67.3	94	65.5	0	0	---	0.00	29.886 
05:05	67.3	67.3	67.3	94	65.5	0	0	---	0.00	29.886 
05:10	67.3	67.3	67.3	94	65.5	0	0	---	0.00	29.886 
05:15	67.3	67.3	67.3	94	65.5	0	0	---	0.00	29.882 
05:20	67.3	67.3	67.3	94	65.5	0	0	---	0.00	29.882 
05:25	67.3	67.3	67.3	94	65.5	0	0	---	0.00	29.882 
05:30	67.3	67.3	67.3	95	65.8	0	0	---	0.00	29.893 
05:35	67.3	67.3	67.3	95	65.8	0	0	---	0.00	29.893 
05:40	67.4	67.4	67.4	95	65.9	0	0	---	0.00	29.893 
05:45	67.4	67.4	67.4	95	65.9	0	0	---	0.00	29.892 
05:50	67.4	67.4	67.4	95	65.9	0	0	---	0.00	29.892 
05:55	67.4	67.4	67.4	95	65.9	0	0	---	0.00	29.892 
06:00	67.4	67.4	67.4	95	65.9	0	0	---	0.00	29.892 
06:05	67.4	67.4	67.4	95	65.9	0	0	---	0.00	29.892 
06:10	67.3	67.3	67.3	95	65.8	0	0	---	0.00	29.892 
06:15	67.3	67.3	67.3	95	65.8	0	0	---	0.00	29.900 
06:20	67.3	67.3	67.3	95	65.8	0	0	---	0.00	29.900 
06:25	67.3	67.3	67.3	95	65.8	0	0	---	0.00	29.900 
06:30	67.3	67.3	67.3	95	65.8	0	0	---	0.00	29.905 
06:35	67.4	67.4	67.4	95	65.9	0	0	---	0.00	29.905 
06:40	67.3	67.3	67.3	95	65.8	0	0	---	0.00	29.905 
06:45	67.3	67.3	67.3	95	65.8	0	0	---	0.00	29.904 
06:50	67.3	67.3	67.3	95	65.8	0	0	---	0.00	29.904 
06:55	67.3	67.3	67.3	95	65.8	0	0	---	0.00	29.904 
07:00	67.3	67.3	67.3	95	65.8	0	0	---	0.00	29.909 
07:05	67.3	67.3	67.3	95	65.8	0	0	---	0.01	29.909 
07:10	67.3	67.3	67.3	95	65.8	0	0	---	0.00	29.909 
07:15	67.3	67.3	67.3	95	65.8	0	0	---	0.00	29.921 
07:20	67.4	67.4	67.4	95	65.9	0	0	---	0.00	29.921 
07:25	67.6	67.6	67.6	96	66.4	0	0	---	0.00	29.921 
07:30	67.6	67.6	67.6	95	66.1	0	0	---	0.00	29.925 
07:35	67.6	67.6	67.6	95	66.1	0	0	---	0.00	29.925 
07:40	67.6	67.6	67.6	95	66.1	0	0	---	0.00	29.925 
07:45	67.8	67.8	67.8	95	66.3	0	0	---	0.00	29.932 
07:50	67.8	67.8	67.8	95	66.3	0	0	---	0.00	29.932 
07:55	67.8	67.8	67.8	96	66.6	0	0	---	0.00	29.932 
08:00	67.8	67.8	67.8	95	66.3	0	0	---	0.00	29.935 
08:05	67.8	67.8	67.8	96	66.6	0	0	---	0.00	29.935 
08:10	67.9	67.9	67.9	96	66.7	0	0	---	0.00	29.935 
08:15	68.1	68.1	68.1	96	66.9	0	0	---	0.00	29.939 
08:20	68.3	68.3	68.3	96	67.1	0	0	---	0.00	29.939 
08:25	68.3	68.3	68.3	96	67.1	0	0	---	0.00	29.939 
08:30	68.3	68.3	68.3	95	66.8	0	0	---	0.00	29.937 
08:35	68.6	68.6	68.6	96	67.4	0	0	---	0.00	29.937 
08:40	69.1	69.1	69.1	96	67.9	0	0	---	0.00	29.937 
08:45	69.1	69.1	69.1	95	67.6	0	1	248	0.00	29.929 
08:50	69.1	69.1	69.1	95	67.6	0	0	---	0.00	29.929 
08:55	69.3	69.3	69.3	95	67.8	0	1	248	0.00	29.929 
09:00	69.3	69.3	69.3	94	67.5	0	1	248	0.00	29.941 
09:05	69.1	69.1	69.1	93	67.0	0	3	248	0.01	29.941 
09:10	69.1	69.1	69.1	93	67.0	0	2	248	0.02	29.941 
09:15	68.8	68.8	68.8	92	66.4	0	1	248	0.01	29.941 
09:20	68.4	68.4	68.4	92	66.0	0	1	248	0.02	29.941 
09:25	67.9	67.9	67.9	92	65.5	0	1	248	0.01	29.941 
09:30	67.3	67.3	67.3	92	64.9	0	1	248	0.00	29.937 
09:35	66.9	66.9	66.9	91	64.2	0	0	---	0.00	29.937 
09:40	66.8	66.8	66.8	92	64.4	0	0	---	0.00	29.937 
09:45	66.9	66.9	66.9	92	64.5	0	0	---	0.00	29.938 
09:50	67.3	67.3	67.3	92	64.9	0	0	---	0.00	29.938 
09:55	67.6	67.6	67.6	93	65.5	0	0	---	0.00	29.938 
10:00	67.9	67.9	67.9	93	65.8	0	0	---	0.00	29.940 
10:05	68.4	68.4	68.4	93	66.3	0	1	248	0.00	29.940 
10:10	68.3	68.3	68.3	93	66.2	0	1	248	0.00	29.940 
10:15	68.3	68.3	68.3	93	66.2	0	0	---	0.00	29.944 
10:20	68.4	68.4	68.4	92	66.0	0	0	---	0.00	29.944 
10:25	68.9	68.9	68.9	93	66.8	0	0	---	0.00	29.944 
10:30	69.1	69.1	69.1	92	66.7	0	1	248	0.00	29.942 
10:35	69.4	69.4	69.4	92	67.0	0	1	248	0.00	29.942 
10:40	69.8	69.8	69.8	92	67.4	0	1	248	0.00	29.942 
10:45	69.9	69.9	69.9	92	67.5	0	0	---	0.00	29.939 
10:50	70.3	70.3	70.3	91	67.5	0	1	248	0.00	29.939 
10:55	70.4	70.4	70.4	90	67.3	0	1	248	0.00	29.939 
11:00	70.9	70.9	70.9	90	67.8	0	1	248	0.00	29.943 
11:05	71.6	71.6	71.6	89	68.2	0	1	248	0.00	29.943 
11:10	72.0	72.0	72.0	85	67.2	0	1	248	0.00	29.943 
11:15	72.0	72.0	72.0	84	66.9	0	0	---	0.00	29.941 
11:20	71.8	71.8	71.8	82	66.0	0	0	---	0.00	29.941 
11:25	72.0	72.0	72.0	81	65.8	0	1	248	0.00	29.941 
11:30	72.1	72.1	72.1	80	65.6	0	1	248	0.00	29.940 
11:35	72.3	72.3	72.3	78	65.0	0	1	248	0.00	29.940 
11:40	72.8	72.8	72.8	77	65.2	1	2	248	0.00	29.940 
11:45	73.5	73.5	73.5	75	65.1	0	1	248	0.00	29.937 
11:50	73.9	73.9	73.9	73	64.7	1	2	248	0.00	29.937 
11:55	74.2	74.2	74.2	74	65.4	1	3	248	0.00	29.937 
12:00	74.9	74.9	74.9	69	64.0	1	3	248	0.00	29.935 
12:05	75.6	75.6	77.4	68	64.3	1	4	292	0.00	29.935 
12:10	76.3	76.3	78.0	69	65.4	1	3	292	0.00	29.935 
12:15	76.5	76.5	78.3	63	62.9	2	3	292	0.00	29.931 
12:20	77.0	77.0	78.8	63	63.4	1	3	292	0.00	29.931 
12:25	77.4	77.4	79.2	63	63.8	1	3	292	0.00	29.931 
12:30	78.1	78.1	79.8	61	63.5	1	3	292	0.00	29.926 
12:35	78.6	78.6	80.1	58	62.6	1	4	292	0.00	29.926 
12:40	79.0	79.0	80.5	57	62.4	2	5	270	0.00	29.926 
12:45	79.4	79.4	80.6	54	61.3	2	4	292	0.00	29.918 
12:50	79.4	79.4	80.5	52	60.2	2	6	270	0.00	29.918 
12:55	79.6	79.6	80.5	51	59.9	2	6	270	0.00	29.918 
13:00	79.9	79.9	80.8	51	60.1	1	5	270	0.00	29.917 
13:05	79.9	79.9	80.9	52	60.7	3	5	270	0.00	29.917 
13:10	79.9	79.9	80.6	49	59.0	3	6	270	0.00	29.917 
13:15	79.8	79.8	80.6	50	59.5	2	5	292	0.00	29.916 
13:20	79.9	79.9	80.7	50	59.6	2	4	315	0.00	29.916 
13:25	79.8	79.8	80.7	51	60.0	2	4	338	0.00	29.916 
13:30	79.6	79.6	80.5	51	59.9	3	9	270	0.00	29.913 
13:35	78.8	78.8	79.9	52	59.7	3	5	315	0.00	29.913 
13:40	79.4	79.4	80.5	52	60.2	3	6	270	0.00	29.913 
13:45	79.9	79.9	81.0	53	61.2	2	5	315	0.00	29.908 
13:50	80.3	80.3	81.2	51	60.5	3	6	292	0.00	29.908 
13:55	80.5	80.5	81.4	51	60.7	2	5	292	0.00	29.908 
14:00	80.5	80.5	81.2	49	59.6	3	6	270	0.00	29.900 
14:05	79.9	79.9	80.5	48	58.4	3	5	315	0.00	29.900 
14:10	79.9	79.9	80.7	50	59.6	3	7	292	0.00	29.900 
14:15	80.3	80.3	81.2	51	60.5	3	5	270	0.00	29.899 
14:20	80.7	80.7	81.4	50	60.3	2	6	270	0.00	29.899 
14:25	80.9	80.9	81.5	49	59.9	3	6	270	0.00	29.899 
14:30	80.9	80.9	81.1	45	57.5	3	6	270	0.00	29.896 
14:35	80.7	80.7	80.9	45	57.4	4	7	315	0.00	29.896 
14:40	81.1	81.1	81.4	46	58.3	3	7	292	0.00	29.896 
14:45	81.2	81.2	81.5	46	58.4	3	6	270	0.00	29.891 
14:50	81.2	81.2	81.5	46	58.4	3	8	270	0.00	29.891 
14:55	81.1	81.1	81.1	44	57.1	3	9	315	0.00	29.891 
15:00	80.7	80.7	80.7	43	56.1	4	8	270	0.00	29.897 
15:05	80.9	80.9	81.1	45	57.5	3	8	315	0.00	29.897 
15:10	80.9	80.9	81.2	46	58.2	3	7	270	0.00	29.897 
15:15	80.7	80.7	80.8	44	56.7	4	7	292	0.00	29.896 
15:20	80.5	80.5	80.8	46	57.8	2	5	270	0.00	29.896 
15:25	80.3	80.3	80.6	45	57.0	4	8	292	0.00	29.896 
15:30	80.9	80.9	81.3	47	58.8	3	5	270	0.00	29.886 
15:35	81.4	81.4	81.8	47	59.2	3	5	270	0.00	29.886 
15:40	82.2	82.2	82.4	46	59.3	2	6	270	0.00	29.886 
15:45	82.2	82.2	82.1	44	58.1	4	9	270	0.00	29.884 
15:50	82.2	82.2	82.3	45	58.7	4	7	270	0.00	29.884 
15:55	82.2	82.2	82.5	47	59.9	3	7	270	0.00	29.884 
16:00	82.0	82.0	82.1	45	58.5	4	9	270	0.00	29.882 
16:05	81.8	81.8	82.0	46	59.0	3	5	270	0.00	29.882 
16:10	81.4	81.4	81.6	46	58.6	4	7	270	0.00	29.882 
16:15	81.6	81.6	81.8	46	58.8	4	8	292	0.00	29.877 
16:20	81.2	81.2	81.6	47	59.0	4	8	292	0.00	29.877 
16:25	81.1	81.1	81.6	48	59.5	3	6	315	0.00	29.877 
16:30	81.1	81.1	81.6	48	59.5	3	9	315	0.00	29.882 
16:35	80.5	80.5	81.0	48	59.0	3	5	270	0.00	29.882 
16:40	80.1	80.1	80.7	48	58.6	4	7	292	0.00	29.882 
16:45	80.7	80.7	81.0	46	58.0	4	6	270	0.00	29.878 
16:50	81.1	81.1	81.4	46	58.3	4	7	270	0.00	29.878 
16:55	80.9	80.9	81.2	46	58.2	3	6	315	0.00	29.878 
17:00	80.3	80.3	80.7	46	57.6	2	5	315	0.00	29.886 
17:05	80.5	80.5	80.6	43	55.9	3	6	315	0.00	29.886 
17:10	80.1	80.1	80.3	43	55.6	4	7	292	0.00	29.886 
17:15	80.1	80.1	80.3	43	55.6	3	5	315	0.00	29.888 
17:20	80.3	80.3	80.3	42	55.1	3	6	315	0.00	29.888 
17:25	80.3	80.3	80.2	41	54.4	3	9	270	0.00	29.888 
17:30	80.1	80.1	79.9	39	52.9	3	7	315	0.00	29.890 
17:35	80.3	80.3	80.1	39	53.1	3	7	292	0.00	29.890 
17:40	80.3	80.3	80.0	38	52.4	3	8	292	0.00	29.890 
17:45	80.1	80.1	79.8	37	51.5	2	6	292	0.00	29.900 
17:50	80.1	80.1	79.8	37	51.5	4	11	292	0.00	29.900 
17:55	79.9	79.9	79.4	34	49.0	4	11	270	0.00	29.900 
18:00	79.9	79.9	79.3	32	47.4	3	7	292	0.00	29.906 
18:05	79.8	79.8	79.2	32	47.3	2	5	292	0.00	29.906 
18:10	79.6	79.6	79.1	32	47.1	3	5	315	0.00	29.906 
18:15	79.4	79.4	79.0	33	47.8	2	5	315	0.00	29.907 
18:20	79.2	79.2	79.0	34	48.4	2	6	315	0.00	29.907 
18:25	79.4	79.4	79.1	34	48.6	1	4	315	0.00	29.907 
18:30	79.0	79.0	79.0	35	49.0	2	7	292	0.00	29.910 
18:35	78.6	78.6	78.7	35	48.6	2	4	315	0.00	29.910 
18:40	78.6	78.6	78.7	35	48.6	1	4	338	0.00	29.910 
18:45	78.5	78.5	78.6	33	47.0	2	5	292	0.00	29.912 
18:50	78.3	78.3	78.5	33	46.8	2	7	338	0.00	29.912 
18:55	78.1	78.1	78.5	35	48.2	2	5	292	0.00	29.912 
19:00	77.9	77.9	78.4	36	48.8	3	7	292	0.00	29.916 
19:05	77.7	77.7	78.3	36	48.6	3	8	315	0.00	29.916 
19:10	77.4	77.4	78.2	36	48.3	2	5	292	0.00	29.916 
19:15	77.2	77.2	78.1	36	48.2	2	6	315	0.00	29.915 
19:20	76.8	76.8	78.0	38	49.2	2	6	315	0.00	29.915 
19:25	76.7	76.7	78.0	37	48.4	2	4	315	0.00	29.915 
19:30	76.5	76.5	77.9	37	48.3	2	5	292	0.00	29.922 
19:35	76.3	76.3	77.8	37	48.1	3	9	270	0.00	29.922 
19:40	76.0	76.0	77.8	39	49.2	2	4	292	0.00	29.922 
19:45	75.8	75.8	77.7	39	49.1	2	6	292	0.00	29.924 
19:50	75.6	75.6	77.6	39	48.9	2	4	270	0.00	29.924 
19:55	75.3	75.3	77.5	38	47.9	1	4	315	0.00	29.924 
20:00	75.1	75.1	77.5	39	48.4	2	5	292	0.00	29.935 
20:05	74.7	74.7	74.7	40	48.8	1	4	292	0.00	29.935 
20:10	74.4	74.4	74.4	40	48.5	1	4	292	0.00	29.935 
20:15	74.2	74.2	74.2	40	48.3	1	4	315	0.00	29.936 
20:20	73.9	73.9	73.9	41	48.7	1	3	315	0.00	29.936 
20:25	73.5	73.5	73.5	42	49.0	0	3	315	0.00	29.936 
20:30	73.3	73.3	73.3	42	48.8	0	2	315	0.00	29.939 
20:35	73.0	73.0	73.0	43	49.2	0	1	315	0.00	29.939 
20:40	72.7	72.7	72.7	43	48.9	0	2	315	0.00	29.939 
20:45	72.5	72.5	72.5	44	49.3	0	1	315	0.00	29.945 
20:50	72.1	72.1	72.1	45	49.6	0	1	315	0.00	29.945 
20:55	71.8	71.8	71.8	45	49.3	0	0	---	0.00	29.945 
21:00	71.5	71.5	71.5	46	49.6	0	0	---	0.00	29.955 
21:05	70.9	70.9	70.9	47	49.7	0	0	---	0.00	29.955 
21:10	70.4	70.4	70.4	49	50.3	0	0	---	0.00	29.955 
21:15	70.1	70.1	70.1	50	50.6	0	0	---	0.00	29.959 
21:20	69.8	69.8	69.8	51	50.8	0	0	---	0.00	29.959 
21:25	69.6	69.6	69.6	51	50.7	0	0	---	0.00	29.959 
21:30	69.6	69.6	69.6	51	50.7	0	0	---	0.00	29.967 
21:35	69.6	69.6	69.6	51	50.7	0	0	---	0.00	29.967 
21:40	69.6	69.6	69.6	52	51.2	0	0	---	0.00	29.967 
21:45	69.4	69.4	69.4	52	51.0	0	1	315	0.00	29.975 
21:50	69.4	69.4	69.4	52	51.0	0	0	---	0.00	29.975 
21:55	69.3	69.3	69.3	53	51.4	0	0	---	0.00	29.975 
22:00	69.1	69.1	69.1	54	51.7	0	0	---	0.00	29.979 
22:05	68.9	68.9	68.9	54	51.6	0	1	315	0.00	29.979 
22:10	68.9	68.9	68.9	54	51.6	0	1	315	0.00	29.979 
22:15	68.8	68.8	68.8	55	52.0	0	1	315	0.00	29.980 
22:20	68.6	68.6	68.6	56	52.3	0	0	---	0.00	29.980 
22:25	68.4	68.4	68.4	56	52.1	0	0	---	0.00	29.980 
22:30	68.3	68.3	68.3	57	52.5	0	0	---	0.00	29.982 
22:35	68.1	68.1	68.1	58	52.8	0	0	---	0.00	29.982 
22:40	67.9	67.9	67.9	58	52.6	0	0	---	0.00	29.982 
22:45	68.1	68.1	68.1	58	52.8	0	0	---	0.00	29.986 
22:50	68.1	68.1	68.1	58	52.8	0	0	---	0.00	29.986 
22:55	68.1	68.1	68.1	59	53.2	0	0	---	0.00	29.986 
23:00	68.1	68.1	68.1	59	53.2	0	0	---	0.00	29.989 
23:05	68.1	68.1	68.1	59	53.2	0	0	---	0.00	29.989 
23:10	68.1	68.1	68.1	59	53.2	0	1	315	0.00	29.989 
23:15	68.1	68.1	68.1	60	53.7	0	0	---	0.00	29.987 
23:20	67.9	67.9	67.9	60	53.5	0	0	---	0.00	29.987 
23:25	67.6	67.6	67.6	61	53.7	0	0	---	0.00	29.987 
23:30	67.3	67.3	67.3	61	53.4	0	0	---	0.00	29.988 
23:35	67.1	67.1	67.1	62	53.6	0	0	---	0.00	29.988 
23:40	66.8	66.8	66.8	62	53.4	0	0	---	0.00	29.988 
23:45	66.4	66.4	66.4	63	53.4	0	0	---	0.00	29.990 
23:50	66.1	66.1	66.1	64	53.6	0	0	---	0.00	29.990 
23:55	65.8	65.8	65.8	65	53.7	0	0	---	0.00	29.990 

CoCoRaHS
IN-AL-39
A2 Web Hosting
Creative Commons License
GoDaddy
search engine by freefind advanced

loaded 2018-11-15 13:39:04 • last modified 2010-11-18 10:43:29
Privacy PolicyDisclaimer
• wx.awcolley.com is powered by PmWiki v.2002016 •
• all content (unless otherwise noted) © 2018 A W Colley